Lietadlo (typ, imatrikulačný znak): _________________/__________________
Meno pilota (skontroloval): ___________________________________
Podpis pilota (skontroloval): ___________________________________

Predpoveď na dnes

Polooblačno až oblačno, na východe spočiatku zmenšená oblačnosť. Postupne miestami prehánky a búrky, najmä v západnej polovici územia. Najvyššia denná teplota 26 až 31, na Orave a pod Tatrami miestami okolo 24 st. Teplota na horách vo výške 1500 m okolo 14 st. Bezvetrie alebo slabý vietor, pri búrkach prechodne zosilnie. Predpokladané množstvo zrážok: do 7 mm, pri búrkach aj okolo 20 mm

SHMÚ, OMPaV, PV 19.7.2019 11:55 LSEČ

METAR - Letisková meteo správa

Letisková meteorologická správa METAR

Meteorologické informácie z ďalších profesionálnych meteorologických staníc SHMÚ zobrazené v tvare zodpovedajúcom pravidlám kódovania správ METAR sú uvedené v položke „METSYN Informácie o správe METAR

19.07.2019 - 20:30 UTC

METAR LZIB 192030Z 24003KT CAVOK 23/16 Q1016=
 METAR LZKZ 192030Z VRB02KT CAVOK 19/13 Q1018=
 METAR LZPP 192030Z AUTO 36006KT 9999 OVC120/// 20/16 Q1016=
 METAR LZSL 192030Z 02004KT CAVOK 18/14 Q1018=
 METAR LZTT 192030Z 31003KT 9999 -RA FEW063 BKN075 14/13 Q1019=
 METAR LZZI 192030Z 07003KT 9999 -RA NSC 17/16 Q1018=
 

19.07.2019 - 20:00 UTC

METAR LZIB 192000Z 15001KT CAVOK 23/16 Q1016=
 METAR LZKZ 192000Z 34003KT 300V040 CAVOK 18/14 Q1017=
 METAR LZPP 192000Z 36009KT CAVOK 20/16 Q1016=
 METAR LZSL 192000Z 06004KT 010V100 CAVOK 19/15 Q1018=
 METAR LZTT 192000Z 33003KT 310V010 9999 -RA SCT063 BKN075 14/13
 Q1019=
 METAR LZZI 192000Z 12003KT 9999 FEW009 17/16 Q1018=
 

19.07.2019 - 20:00 UTC

METAR LZMC 192000Z 09002KT CAVOK 22/13 Q1017=
 METAR LZPW 192000Z 20006KT 9999 -SHRA SCT030 BKN100
 17/15 Q1018=
 

TAF - Letisková predpoveď

19.07.2019 - 17:00 UTC

TAF AMD LZPP 192010Z 1920/2003 CNL=
 

19.07.2019 - 20:00 UTC

TAF LZSL 192000Z 1921/2006 35004KT CAVOK=
 TAF LZZI 192000Z 1921/2006 VRB02KT 9999 FEW004 BKN100
     TEMPO 1921/2002 4500 -RA BR BKN004 OVC080
     PROB30 TEMPO 2000/2005 0600 FG BKN002=
 

19.07.2019 - 17:00 UTC

TAF AMD LZTT 191808Z 1918/2018 24005KT 9999 FEW050 SCT070
     TEMPO 1918/1920 25020KT SHRA FEW045CB BKN055
     TEMPO 2000/2005 VRB02KT 4000 BR SCT003
     TEMPO 2010/2016 6000 TSRA SCT035CB BKN060
     BECMG 2012/2014 06007KT=
 

19.07.2019 - 17:00 UTC

TAF LZIB 191700Z 1918/2018 30006KT CAVOK
     BECMG 2000/2002 05007KT
     BECMG 2008/2010 17010KT 9999 SCT043
     BECMG 2015/2017 23006KT=
 TAF LZKZ 191700Z 1918/2018 VRB02KT CAVOK
     TEMPO 2000/2005 3000 BCFG FEW002
     BECMG 2006/2008 21006KT 9999 FEW043 BKN060
     TEMPO 2010/2018 SHRA BKN040 FEW045CB
     PROB40 TEMPO 2011/2016 7000 -TSRA FEW033CB BKN050=
 TAF LZTT 191700Z 1918/2018 24005KT 9999 FEW050 SCT070
     PROB40 TEMPO 1918/1920 -SHRA FEW045CB BKN055
     TEMPO 2000/2005 VRB02KT 4000 BR SCT003
     TEMPO 2010/2016 6000 TSRA SCT035CB BKN060
     BECMG 2012/2014 06007KT=
 

19.07.2019 - 17:00 UTC

TAF LZSL 191700Z 1918/2003 21006KT 9999 FEW050 SCT090
     PROB40 TEMPO 1918/1920 -SHRA FEW040CB BKN080
     BECMG 1918/1920 34005KT
     TEMPO 2000/2003 VRB02KT 1300 BCFG FEW001=
 TAF LZPP 191700Z 1918/2003 16008KT CAVOK
     PROB40 TEMPO 1918/1920 23012KT 9999 SHRA FEW045CB SCT063
     BECMG 1920/1922 VRB02KT=
 TAF LZZI 191700Z 1918/2003 VRB02KT 9999 FEW010 BKN043
     TEMPO 1918/1920 -SHRA FEW042CB BKN070
     PROB40 TEMPO 2000/2003 2500 BCFG FEW002=
 

19.07.2019 - 14:00 UTC

TAF LZSL 191400Z 1915/2000 21006KT 9999 FEW050 SCT090
     TEMPO 1915/1917 17010G20KT SHRA FEW045CB SCT050
     BECMG 1917/1919 34005KT=
 TAF LZPP 191400Z 1915/2000 16008KT CAVOK
     TEMPO 1915/1917 22013G23KT 9999 -SHRA FEW050TCU SCT063
     BECMG 1919/1921 VRB02KT=
 TAF LZZI 191400Z 1915/2000 VRB02KT 9999 SCT053
     TEMPO 1915/1917 24010G20KT -TSRA FEW045CB BKN060
     PROB40 TEMPO 1917/1921 -SHRA BKN050=
 

19.07.2019 - 11:00 UTC

TAF LZIB 191100Z 1912/2012 25006KT 9999 FEW045 SCT060
     PROB40 TEMPO 1912/1916 23015G25KT 8000 -TSRA BKN040 SCT045CB
     BECMG 1918/1920 VRB02KT CAVOK
     BECMG 2000/2002 05006KT
     BECMG 2008/2010 17010KT 9999 SCT040=
 TAF LZKZ 191100Z 1912/2012 VRB02KT 9999 SCT045
     TEMPO 1912/1916 22012KT 7000 SHRA FEW040CB SCT070
     BECMG 1918/1920 CAVOK
     BECMG 2008/2010 21006KT FEW040 BKN060
     PROB40 TEMPO 2010/2012 -TSRA FEW035CB BKN042=
 TAF LZTT 191100Z 1912/2012 04006KT 9999 FEW050 SCT065
     TEMPO 1912/1918 -SHRA SCT040 FEW050CB
     PROB40 TEMPO 1913/1916 25015KT 5000 TSRA SCT045CB
     BECMG 1918/1920 VRB02KT
     TEMPO 2010/2012 SHRA SCT042 BKN060=
 

19.07.2019 - 11:00 UTC

TAF LZSL 191100Z 1912/1921 21006KT 9999 FEW050 SCT090
     TEMPO 1912/1917 SHRA SCT043TCU SCT050
     PROB40 TEMPO 1912/1916 17015G25KT 6000 TSRA SCT035CB BKN060
     BECMG 1917/1919 34005KT=
 TAF LZPP 191100Z 1912/1921 16008KT CAVOK
     TEMPO 1912/1916 22013G23KT 9999 -SHRA FEW047TCU SCT055
     PROB30 TEMPO 1912/1915 -TSRA FEW040CB BKN070=
 TAF LZZI 191100Z 1912/1921 26010KT 9999 SCT053
     TEMPO 1912/1916 30015G25KT SHRA FEW050CB BKN060
     BECMG 1916/1918 VRB02KT=
 

19.07.2019 - 08:00 UTC

TAF COR LZPP 190753Z 1909/1918 16008KT CAVOK
     TEMPO 1910/1916 21013G23KT 9999 -SHRA FEW047TCU SCT055
     PROB40 TEMPO 1912/1915 -TSRA FEW040CB BKN070=
 

19.07.2019 - 08:00 UTC

TAF LZSL 190800Z 1909/1918 15006KT 9999 FEW050
     TEMPO 1909/1916 17010KT SHRA SCT043TCU SCT050
     PROB40 TEMPO 1912/1916 18015G25KT 6000 TSRA SCT035CB BKN060
     BECMG 1916/1918 03005KT=
 TAF LZPP 190800Z 1909/1918 16008KT CAVOK
     TEMPO 1910/1916 21013G23KT -SHRA FEW047TCU SCT055
     PROB40 TEMPO 1912/1915 -TSRA FEW040CB BKN070=
 TAF LZZI 190800Z 1909/1918 26007KT CAVOK
     BECMG 1909/1911 9999 SCT053
     TEMPO 1912/1916 30015G25KT SHRA FEW050CB BKN080
     BECMG 1916/1918 VRB02KT=
 

19.07.2019 - 05:00 UTC

TAF LZIB 190500Z 1906/2006 08005KT CAVOK
     BECMG 1910/1912 25007KT 9999 FEW050CB
     PROB40 TEMPO 1913/1916 25015G25KT 8000 -TSRA BKN040 SCT045CB
     BECMG 1917/1918 VRB02KT CAVOK
     BECMG 2004/2006 06006KT=
 TAF LZKZ 190500Z 1906/2006 VRB02KT CAVOK
     BECMG 1908/1910 22008KT 9999 SCT045
     PROB40 TEMPO 1912/1917 7000 SHRA FEW040TCU SCT070
     BECMG 1918/1920 VRB02KT CAVOK=
 TAF LZTT 190500Z 1906/2006 VRB02KT CAVOK
     BECMG 1908/1910 05005KT 9999 SCT050
     TEMPO 1910/1918 -SHRA SCT040 FEW050CB
     PROB40 TEMPO 1913/1916 25015KT 5000 TSRA SCT045CB
     BECMG 1918/1920 VRB02KT=
 

19.07.2019 - 05:00 UTC

TAF LZSL 190500Z 1906/1915 VRB02KT CAVOK
     BECMG 1909/1911 FEW055TCU SCT070
     TEMPO 1910/1915 17010KT -SHRA
     PROB40 TEMPO 1913/1915 18015G25KT 6000 TSRA SCT050CB=
 TAF LZPP 190500Z 1906/1915 VRB02KT CAVOK
     BECMG 1906/1908 18006KT
     TEMPO 1912/1915 20013KT -SHRA SCT055TCU SCT075=
 TAF LZZI 190500Z 1906/1915 VRB02KT CAVOK
     BECMG 1909/1911 28005KT
     TEMPO 1913/1915 30012KT -SHRA FEW050TCU SCT060=
 

19.07.2019 - 02:00 UTC

TAF LZSL 190200Z 1903/1912 VRB02KT CAVOK
     PROB40 TEMPO 1903/1904 4500 BR NSC
     TEMPO 1909/1912 15008KT -SHRA FEW050TCU SCT060=
 TAF LZZI 190200Z 1903/1912 VRB02KT CAVOK
     BECMG 1908/1910 28005KT FEW055TCU
     TEMPO 1909/1912 -SHRA=